Time;durP1;ratioP1;P1;durP2;ratioP2;P2;SDS_P1;SDS_P2;PMS_P1;PMS_P2;Temp;Humidity;BMP_temperature;BMP_pressure;BME280_temperature;BME280_humidity;BME280_pressure;Samples;Min_cycle;Max_cycle;Signal;HPM_P1;HPM_P2
2022/08/29 00:02:19;;;;;;;11.88;7.03;;;22.70;74.30;;;;;;5053698;28;20041;-67
2022/08/29 00:04:45;;;;;;;10.50;7.00;;;22.70;74.20;;;;;;5051374;28;20057;-66
2022/08/29 00:07:11;;;;;;;9.80;7.65;;;22.70;74.20;;;;;;5052886;28;20025;-65
2022/08/29 00:09:37;;;;;;;6.72;6.03;;;22.70;74.20;;;;;;5052232;28;20039;-64
2022/08/29 00:12:03;;;;;;;8.15;6.25;;;22.70;74.30;;;;;;5053423;28;20100;-65
2022/08/29 00:14:30;;;;;;;9.65;6.80;;;22.70;74.50;;;;;;5053467;28;20028;-65
2022/08/29 00:16:56;;;;;;;10.70;6.60;;;22.80;74.60;;;;;;5052131;28;20112;-65
2022/08/29 00:19:21;;;;;;;6.78;6.07;;;22.70;74.40;;;;;;5048196;28;20093;-67
2022/08/29 00:21:47;;;;;;;6.35;5.72;;;22.80;74.40;;;;;;5032934;28;20137;-64
2022/08/29 00:24:13;;;;;;;7.57;6.78;;;22.70;74.30;;;;;;5033385;28;20096;-64
2022/08/29 00:26:39;;;;;;;14.05;7.22;;;22.80;74.40;;;;;;5033313;28;20052;-65
2022/08/29 00:29:05;;;;;;;8.77;6.45;;;22.70;74.20;;;;;;5034173;28;20057;-64
2022/08/29 00:31:31;;;;;;;9.00;7.20;;;22.80;74.00;;;;;;5027932;28;20104;-64
2022/08/29 00:33:56;;;;;;;11.20;7.57;;;22.70;73.80;;;;;;5032888;28;20506;-65
2022/08/29 00:36:23;;;;;;;8.18;7.07;;;22.70;73.90;;;;;;5053235;28;20111;-66
2022/08/29 00:38:49;;;;;;;14.90;7.88;;;22.80;73.90;;;;;;5053166;28;20025;-65
2022/08/29 00:41:15;;;;;;;9.63;7.07;;;22.70;73.90;;;;;;5051902;28;20032;-66
2022/08/29 00:43:41;;;;;;;8.23;7.25;;;22.70;73.90;;;;;;5033181;28;20475;-66
2022/08/29 00:46:28;;;;;;;11.02;7.10;;;22.70;74.00;;;;;;5033204;28;20021;-67
2022/08/29 00:49:02;;;;;;;9.57;6.50;;;22.70;74.00;;;;;;5033095;28;20072;-67
2022/08/29 00:51:28;;;;;;;10.75;8.13;;;22.70;74.20;;;;;;5033164;28;20021;-66
2022/08/29 00:54:00;;;;;;;7.38;6.50;;;22.70;74.30;;;;;;5033102;28;20024;-65
2022/08/29 00:56:27;;;;;;;17.27;7.95;;;22.70;74.40;;;;;;5033060;28;20022;-67
2022/08/29 00:58:57;;;;;;;8.65;7.80;;;22.70;74.40;;;;;;5044638;28;20033;-67
2022/08/29 01:01:24;;;;;;;12.18;8.45;;;22.70;74.40;;;;;;5052887;28;20428;-66
2022/08/29 01:03:51;;;;;;;8.07;7.13;;;22.70;74.30;;;;;;5041968;28;20472;-67
2022/08/29 01:06:17;;;;;;;8.20;7.15;;;22.70;74.20;;;;;;5050609;28;20024;-66
2022/08/29 01:08:44;;;;;;;8.05;7.03;;;22.70;74.30;;;;;;5052348;28;20028;-67
2022/08/29 01:14:01;;;;;;;11.13;7.00;;;22.70;74.40;;;;;;5041152;28;20041;-65
2022/08/29 01:16:28;;;;;;;13.93;6.97;;;22.70;74.40;;;;;;5052011;28;20056;-66
2022/08/29 01:19:04;;;;;;;7.93;6.80;;;22.70;74.40;;;;;;5040192;28;20017;-67
2022/08/29 01:21:46;;;;;;;7.75;6.63;;;22.70;74.50;;;;;;5042388;28;20052;-67
2022/08/29 01:24:15;;;;;;;9.20;7.50;;;22.70;74.50;;;;;;5037499;28;20064;-67
2022/08/29 01:26:43;;;;;;;8.52;6.65;;;22.70;74.40;;;;;;5050907;28;20028;-66
2022/08/29 01:29:09;;;;;;;11.23;6.75;;;22.70;74.50;;;;;;5045679;28;20021;-66
2022/08/29 01:31:41;;;;;;;7.97;6.70;;;22.70;74.60;;;;;;5041194;28;20112;-64
2022/08/29 01:34:08;;;;;;;10.30;7.97;;;22.70;74.60;;;;;;5052000;28;20021;-66
2022/08/29 01:36:44;;;;;;;9.32;8.40;;;22.70;74.40;;;;;;5054465;28;20033;-67
2022/08/29 01:39:10;;;;;;;10.18;7.45;;;22.70;74.20;;;;;;5056091;28;20036;-66
2022/08/29 01:41:36;;;;;;;10.38;7.35;;;22.70;74.40;;;;;;5056108;28;20025;-64
2022/08/29 01:44:12;;;;;;;9.90;8.38;;;22.70;74.50;;;;;;5056028;28;20531;-64
2022/08/29 01:46:38;;;;;;;9.10;7.32;;;22.70;74.50;;;;;;5053815;28;20082;-67
2022/08/29 01:49:06;;;;;;;8.68;7.35;;;22.70;74.50;;;;;;5041758;28;20037;-66
2022/08/29 01:51:33;;;;;;;17.73;8.98;;;22.70;74.60;;;;;;5054490;28;20386;-65
2022/08/29 01:53:58;;;;;;;8.75;7.60;;;22.70;74.60;;;;;;5054472;28;20036;-66
2022/08/29 01:56:27;;;;;;;10.35;8.35;;;22.70;74.60;;;;;;5039656;28;20413;-65
2022/08/29 01:58:55;;;;;;;11.18;7.75;;;22.70;74.60;;;;;;5051455;28;20064;-66
2022/08/29 02:01:28;;;;;;;8.95;7.45;;;22.70;74.40;;;;;;5040107;28;20044;-64
2022/08/29 02:03:54;;;;;;;8.73;7.68;;;22.70;74.30;;;;;;5055661;28;20096;-67
2022/08/29 02:06:20;;;;;;;10.10;7.72;;;22.70;73.90;;;;;;5055518;28;20112;-65
2022/08/29 02:08:46;;;;;;;10.00;8.50;;;22.60;73.80;;;;;;5041247;28;20029;-67
2022/08/29 02:11:14;;;;;;;9.98;8.73;;;22.60;73.90;;;;;;5034751;28;20434;-66
2022/08/29 02:13:44;;;;;;;10.00;8.95;;;22.50;74.00;;;;;;5040441;28;20071;-67
2022/08/29 02:16:10;;;;;;;12.27;8.43;;;22.50;74.00;;;;;;5045479;28;20052;-64
2022/08/29 02:18:36;;;;;;;8.48;7.57;;;22.50;74.20;;;;;;5043135;28;20091;-65
2022/08/29 02:21:03;;;;;;;7.55;6.82;;;22.40;74.40;;;;;;5044723;28;20112;-64
2022/08/29 02:23:29;;;;;;;7.55;6.72;;;22.40;74.60;;;;;;5035740;28;20045;-67
2022/08/29 02:25:56;;;;;;;9.45;6.93;;;22.40;74.90;;;;;;5053073;28;20029;-65
2022/08/29 02:28:21;;;;;;;7.85;5.28;;;22.50;75.00;;;;;;5049664;28;20024;-67
2022/08/29 02:30:51;;;;;;;12.38;6.20;;;22.40;75.00;;;;;;5041868;28;20025;-67
2022/08/29 02:33:18;;;;;;;6.82;6.13;;;22.50;75.10;;;;;;5041903;28;20021;-66
2022/08/29 02:35:44;;;;;;;8.00;6.68;;;22.50;75.20;;;;;;5055070;28;20032;-65
2022/08/29 02:38:11;;;;;;;6.93;6.22;;;22.50;75.10;;;;;;5054724;28;20418;-66
2022/08/29 02:40:37;;;;;;;8.50;6.38;;;22.50;75.10;;;;;;5054848;28;20029;-65
2022/08/29 02:43:04;;;;;;;8.25;6.80;;;22.50;75.10;;;;;;5053821;28;20054;-65
2022/08/29 02:45:31;;;;;;;7.00;6.30;;;22.50;74.90;;;;;;5054669;28;20028;-65
2022/08/29 02:47:58;;;;;;;10.95;7.30;;;22.50;75.00;;;;;;5054807;28;20497;-66
2022/08/29 02:50:24;;;;;;;12.35;7.95;;;22.50;74.90;;;;;;5037149;28;20034;-64
2022/08/29 02:52:51;;;;;;;7.63;6.30;;;22.60;74.80;;;;;;5035302;28;20064;-67
2022/08/29 02:55:19;;;;;;;9.88;6.50;;;22.60;74.80;;;;;;5043319;28;20025;-66
2022/08/29 02:57:46;;;;;;;7.22;6.32;;;22.60;74.70;;;;;;5053758;28;20035;-64
2022/08/29 03:00:16;;;;;;;10.68;6.85;;;22.60;74.60;;;;;;5039493;28;20025;-65
2022/08/29 03:02:44;;;;;;;9.73;6.50;;;22.60;74.50;;;;;;5051907;28;20090;-66
2022/08/29 03:05:09;;;;;;;7.03;6.38;;;22.60;74.60;;;;;;5054539;28;20024;-64
2022/08/29 03:07:35;;;;;;;10.15;6.68;;;22.60;74.50;;;;;;5053104;28;20025;-67
2022/08/29 03:10:03;;;;;;;6.97;6.25;;;22.60;74.40;;;;;;5054529;28;20048;-65
2022/08/29 03:12:28;;;;;;;9.82;6.80;;;22.60;74.30;;;;;;5040645;28;20034;-65
2022/08/29 03:14:55;;;;;;;8.40;7.07;;;22.60;74.20;;;;;;5034947;28;20029;-66
2022/08/29 03:17:21;;;;;;;7.97;6.88;;;22.60;74.10;;;;;;5038299;28;20021;-66
2022/08/29 03:19:47;;;;;;;8.05;6.63;;;22.60;73.90;;;;;;5054445;28;20098;-67
2022/08/29 03:22:12;;;;;;;7.30;6.57;;;22.50;73.80;;;;;;5054041;28;20041;-66
2022/08/29 03:24:38;;;;;;;7.97;7.18;;;22.40;73.50;;;;;;5054111;28;20087;-67
2022/08/29 03:27:04;;;;;;;7.68;6.72;;;22.40;73.30;;;;;;5037420;28;20029;-65
2022/08/29 03:29:29;;;;;;;7.57;6.57;;;22.30;73.20;;;;;;5045043;28;20061;-65
2022/08/29 03:31:57;;;;;;;11.88;6.18;;;22.20;73.10;;;;;;5034463;28;20030;-65
2022/08/29 03:34:32;;;;;;;8.75;6.57;;;22.20;73.10;;;;;;5044656;28;20052;-66
2022/08/29 03:36:58;;;;;;;6.72;6.03;;;22.10;73.20;;;;;;5053765;28;20108;-67
2022/08/29 03:39:24;;;;;;;14.63;6.80;;;22.10;73.20;;;;;;5051961;28;20120;-67
2022/08/29 03:41:50;;;;;;;11.18;7.40;;;22.00;73.20;;;;;;5034298;28;20033;-65
2022/08/29 03:44:15;;;;;;;6.97;6.03;;;21.90;73.30;;;;;;5042024;28;20029;-66
2022/08/29 03:46:41;;;;;;;6.65;5.95;;;21.90;73.40;;;;;;5053576;28;20029;-64
2022/08/29 03:49:07;;;;;;;8.32;7.35;;;21.80;73.40;;;;;;5053625;28;20359;-67
2022/08/29 03:51:35;;;;;;;9.10;7.45;;;21.70;73.60;;;;;;5052212;28;20033;-68
2022/08/29 03:54:00;;;;;;;12.20;6.93;;;21.60;73.80;;;;;;5052956;28;20033;-68
2022/08/29 03:56:27;;;;;;;8.90;6.13;;;21.60;74.00;;;;;;5043792;28;20387;-66
2022/08/29 03:58:54;;;;;;;6.45;5.75;;;21.60;74.20;;;;;;5043378;28;20478;-65
2022/08/29 04:01:23;;;;;;;7.20;6.13;;;21.50;74.30;;;;;;5019757;28;20030;-65
2022/08/29 04:03:49;;;;;;;7.45;6.65;;;21.50;74.40;;;;;;5020656;28;20028;-65
2022/08/29 04:06:15;;;;;;;9.15;7.53;;;21.40;74.40;;;;;;5053254;28;20029;-68
2022/08/29 04:08:42;;;;;;;9.00;7.97;;;21.40;74.60;;;;;;5053273;28;20032;-66
2022/08/29 04:11:13;;;;;;;16.05;8.63;;;21.40;74.80;;;;;;5039981;28;20108;-67
2022/08/29 04:13:39;;;;;;;10.27;8.27;;;21.30;74.80;;;;;;5047268;28;20029;-65
2022/08/29 04:16:13;;;;;;;12.38;9.15;;;21.30;75.00;;;;;;5049279;28;20029;-68
2022/08/29 04:18:39;;;;;;;11.07;8.52;;;21.30;75.20;;;;;;5038492;28;20027;-66
2022/08/29 04:21:06;;;;;;;14.13;9.60;;;21.20;75.20;;;;;;5052984;28;20033;-67
2022/08/29 04:23:33;;;;;;;13.90;10.30;;;21.20;75.30;;;;;;5052119;28;20052;-65
2022/08/29 04:26:00;;;;;;;12.13;9.27;;;21.20;75.40;;;;;;5052144;28;20043;-66
2022/08/29 04:28:26;;;;;;;14.77;9.68;;;21.20;75.60;;;;;;5038278;28;20028;-65
2022/08/29 04:30:52;;;;;;;14.25;8.95;;;21.20;75.70;;;;;;5042328;28;20026;-67
2022/08/29 04:33:23;;;;;;;11.10;9.20;;;21.20;75.80;;;;;;5023821;28;20033;-67
2022/08/29 04:35:50;;;;;;;11.88;8.60;;;21.20;75.90;;;;;;5041002;28;20025;-65
2022/08/29 04:38:16;;;;;;;10.18;8.30;;;21.30;76.10;;;;;;5052046;28;20040;-65
2022/08/29 04:40:43;;;;;;;9.55;7.82;;;21.30;76.30;;;;;;5051875;28;20553;-66
2022/08/29 04:43:09;;;;;;;9.38;8.02;;;21.30;76.50;;;;;;5051895;28;20471;-65
2022/08/29 04:45:36;;;;;;;12.05;8.55;;;21.40;76.50;;;;;;5049673;28;20479;-66
2022/08/29 04:48:02;;;;;;;10.00;7.93;;;21.40;76.40;;;;;;5037809;28;20514;-65
2022/08/29 04:50:29;;;;;;;11.93;8.75;;;21.50;76.30;;;;;;5051834;28;20108;-66
2022/08/29 04:52:55;;;;;;;8.45;7.57;;;21.60;76.20;;;;;;5051740;28;20057;-65
2022/08/29 04:55:22;;;;;;;11.98;8.48;;;21.60;76.00;;;;;;5050074;28;20032;-65
2022/08/29 04:57:49;;;;;;;16.52;8.00;;;21.60;75.70;;;;;;5035282;28;20057;-66
2022/08/29 05:00:19;;;;;;;9.02;7.57;;;21.70;75.80;;;;;;5019341;28;20025;-65
2022/08/29 05:02:45;;;;;;;9.45;8.40;;;21.70;75.80;;;;;;5051702;28;20028;-65
2022/08/29 05:05:13;;;;;;;13.90;9.50;;;21.70;75.70;;;;;;5041411;28;20061;-67
2022/08/29 05:07:40;;;;;;;11.57;9.70;;;21.80;75.50;;;;;;5045801;28;20363;-65
2022/08/29 05:10:13;;;;;;;15.68;10.68;;;21.80;75.10;;;;;;5034170;28;20108;-65
2022/08/29 05:12:39;;;;;;;14.98;11.30;;;21.80;74.60;;;;;;5044703;28;20124;-69
2022/08/29 05:15:05;;;;;;;11.88;8.88;;;21.80;74.30;;;;;;5032145;28;20113;-66
2022/08/29 05:17:32;;;;;;;14.02;9.45;;;21.80;74.60;;;;;;5032094;28;20108;-67
2022/08/29 05:19:58;;;;;;;11.23;8.52;;;21.80;74.70;;;;;;5046541;28;20057;-65
2022/08/29 05:22:24;;;;;;;11.83;10.07;;;21.80;74.70;;;;;;5007668;28;1226757;-67
2022/08/29 05:24:50;;;;;;;10.93;8.82;;;21.80;74.80;;;;;;5032836;28;20037;-66
2022/08/29 05:27:19;;;;;;;16.15;9.45;;;21.80;74.80;;;;;;5041010;28;20021;-65
2022/08/29 05:29:47;;;;;;;10.93;8.73;;;21.80;75.60;;;;;;5039097;28;20053;-66
2022/08/29 05:32:13;;;;;;;12.80;8.88;;;21.80;74.90;;;;;;5032781;28;20049;-66
2022/08/29 05:34:41;;;;;;;12.13;10.13;;;21.80;74.90;;;;;;5046511;28;20033;-66
2022/08/29 05:37:10;;;;;;;9.95;8.80;;;21.90;74.70;;;;;;5032722;28;20171;-67
2022/08/29 05:39:38;;;;;;;23.45;10.35;;;21.90;74.80;;;;;;5043105;28;20104;-66
2022/08/29 05:42:06;;;;;;;13.10;9.65;;;21.90;74.70;;;;;;5052435;28;20103;-67
2022/08/29 05:44:32;;;;;;;12.23;10.38;;;21.90;74.60;;;;;;5043195;28;20044;-67
2022/08/29 05:46:59;;;;;;;11.95;9.18;;;21.90;74.50;;;;;;5035532;28;20489;-65
2022/08/29 05:49:26;;;;;;;14.80;10.13;;;21.80;74.50;;;;;;5033186;28;20414;-66
2022/08/29 05:51:53;;;;;;;14.95;9.90;;;21.80;74.60;;;;;;5032313;28;20029;-66
2022/08/29 05:54:20;;;;;;;13.02;10.75;;;21.90;74.70;;;;;;5052361;28;20057;-67
2022/08/29 05:56:46;;;;;;;10.30;9.15;;;21.80;74.70;;;;;;5032417;28;20394;-65
2022/08/29 05:59:12;;;;;;;12.77;9.60;;;21.80;74.80;;;;;;5043122;28;20137;-65
2022/08/29 06:01:38;;;;;;;12.95;10.85;;;21.80;74.90;;;;;;5052334;28;20489;-67
2022/08/29 06:04:04;;;;;;;13.13;10.68;;;21.90;75.10;;;;;;5051916;28;20033;-69
2022/08/29 06:06:30;;;;;;;13.00;9.65;;;21.90;75.20;;;;;;5032367;28;20387;-68
2022/08/29 06:08:58;;;;;;;15.45;12.10;;;21.90;75.60;;;;;;5032369;28;20030;-65
2022/08/29 06:11:31;;;;;;;14.52;10.57;;;22.00;75.50;;;;;;5032295;28;20028;-65
2022/08/29 06:13:58;;;;;;;15.30;10.73;;;22.00;75.50;;;;;;5032268;28;20049;-67
2022/08/29 06:16:27;;;;;;;14.25;12.15;;;22.10;75.30;;;;;;5032157;28;20018;-64
2022/08/29 06:18:53;;;;;;;16.17;11.93;;;22.20;75.10;;;;;;5032173;28;20089;-65
2022/08/29 06:21:19;;;;;;;14.57;11.15;;;22.20;74.60;;;;;;5034883;28;20017;-66
2022/08/29 06:23:45;;;;;;;15.45;11.57;;;22.30;74.60;;;;;;5034892;28;20120;-66
2022/08/29 06:26:12;;;;;;;32.80;12.63;;;22.30;74.30;;;;;;5049861;28;20025;-65
2022/08/29 06:28:41;;;;;;;17.95;11.75;;;22.40;74.10;;;;;;5048354;28;20553;-67
2022/08/29 06:31:10;;;;;;;15.13;10.98;;;22.40;74.10;;;;;;5036401;28;20033;-67
2022/08/29 06:33:37;;;;;;;17.58;10.68;;;22.50;74.50;;;;;;5035104;28;20038;-65
2022/08/29 06:36:04;;;;;;;13.98;10.23;;;22.70;75.10;;;;;;5035504;28;20033;-65
2022/08/29 06:38:30;;;;;;;14.98;9.88;;;22.80;75.60;;;;;;5035442;28;20036;-66
2022/08/29 06:40:56;;;;;;;15.80;10.57;;;22.90;75.30;;;;;;5034258;28;20029;-64
2022/08/29 06:43:22;;;;;;;13.02;9.75;;;23.10;74.00;;;;;;5034333;28;20026;-64
2022/08/29 06:45:47;;;;;;;12.45;9.23;;;23.20;73.70;;;;;;5017704;28;20029;-66
2022/08/29 06:48:13;;;;;;;13.70;8.77;;;23.30;74.50;;;;;;5035465;28;20014;-64
2022/08/29 06:50:40;;;;;;;14.93;9.35;;;23.50;74.60;;;;;;5035327;28;20021;-66
2022/08/29 06:53:06;;;;;;;14.07;8.82;;;23.60;74.30;;;;;;5035227;28;20033;-66
2022/08/29 06:55:36;;;;;;;11.38;9.77;;;23.80;74.10;;;;;;5035301;28;20029;-65
2022/08/29 06:58:02;;;;;;;12.30;9.80;;;23.90;72.50;;;;;;5035166;28;20121;-66
2022/08/29 07:00:28;;;;;;;15.95;10.15;;;24.00;71.90;;;;;;5033983;28;20109;-65
2022/08/29 07:02:54;;;;;;;11.75;9.20;;;24.00;71.00;;;;;;5034903;28;20052;-64
2022/08/29 07:05:22;;;;;;;18.70;9.80;;;24.10;71.00;;;;;;5047507;28;20029;-65
2022/08/29 07:07:49;;;;;;;13.93;9.30;;;24.20;70.80;;;;;;5054841;28;20029;-66
2022/08/29 07:10:15;;;;;;;11.98;9.75;;;24.30;70.60;;;;;;5044014;28;20075;-66
2022/08/29 07:12:40;;;;;;;13.82;10.02;;;24.40;70.50;;;;;;5034901;28;20045;-67
2022/08/29 07:15:07;;;;;;;13.38;9.15;;;24.40;69.80;;;;;;5032600;28;20143;-67
2022/08/29 07:17:33;;;;;;;13.65;8.95;;;24.50;70.30;;;;;;5051787;28;20025;-66
2022/08/29 07:19:59;;;;;;;13.27;9.50;;;24.60;69.80;;;;;;5036746;28;20433;-65
2022/08/29 07:22:25;;;;;;;11.13;7.88;;;24.60;69.20;;;;;;5054331;28;20049;-67
2022/08/29 07:24:51;;;;;;;12.95;9.18;;;24.80;69.40;;;;;;5054529;28;20017;-66
2022/08/29 07:27:17;;;;;;;13.45;8.85;;;24.80;69.90;;;;;;5054509;28;20013;-65
2022/08/29 07:29:43;;;;;;;12.70;9.10;;;24.90;69.00;;;;;;5053641;28;20094;-65
2022/08/29 07:32:09;;;;;;;10.85;8.50;;;25.00;68.40;;;;;;5053144;28;20031;-64
2022/08/29 07:34:35;;;;;;;13.48;8.02;;;25.10;68.30;;;;;;5054318;28;20029;-65
2022/08/29 07:37:03;;;;;;;12.77;8.43;;;25.10;69.00;;;;;;5054338;28;20025;-66
2022/08/29 07:39:30;;;;;;;11.30;8.60;;;25.20;69.60;;;;;;5054214;28;20494;-66
2022/08/29 07:41:57;;;;;;;16.30;8.82;;;25.30;69.40;;;;;;5042791;28;20025;-67
2022/08/29 07:44:24;;;;;;;11.90;8.57;;;25.40;69.20;;;;;;5021149;28;20040;-66
2022/08/29 07:46:58;;;;;;;12.23;8.52;;;25.50;69.10;;;;;;5034193;28;20030;-67
2022/08/29 07:49:24;;;;;;;;;;;25.60;68.10;;;;;;5034655;28;20025;-66
2022/08/29 07:51:54;;;;;;;11.27;7.82;;;25.70;68.90;;;;;;5034118;28;20417;-66
2022/08/29 07:54:21;;;;;;;10.02;8.27;;;25.70;65.70;;;;;;5034054;28;20117;-64
2022/08/29 07:56:49;;;;;;;14.80;7.72;;;25.80;66.90;;;;;;5034365;28;20485;-68
2022/08/29 07:59:17;;;;;;;10.70;8.32;;;25.80;66.90;;;;;;5043311;28;20395;-65
2022/08/29 08:01:43;;;;;;;10.60;7.15;;;25.80;66.00;;;;;;5053729;28;20364;-67
2022/08/29 08:04:09;;;;;;;12.57;8.35;;;25.90;65.90;;;;;;5053610;28;20029;-65
2022/08/29 08:06:37;;;;;;;10.52;7.72;;;26.00;65.90;;;;;;5053225;28;20601;-65
2022/08/29 08:09:04;;;;;;;9.27;8.13;;;26.10;65.60;;;;;;5015498;28;20025;-67
2022/08/29 08:11:30;;;;;;;13.13;7.32;;;26.10;66.20;;;;;;5033672;28;20028;-66
2022/08/29 08:13:56;;;;;;;14.40;8.02;;;26.20;66.00;;;;;;5033740;28;20022;-67
2022/08/29 08:16:24;;;;;;;12.80;7.47;;;26.30;65.00;;;;;;5033753;28;20060;-63
2022/08/29 08:18:51;;;;;;;9.50;6.90;;;26.40;64.80;;;;;;5033695;28;20499;-65
2022/08/29 08:21:17;;;;;;;11.75;7.78;;;26.40;64.90;;;;;;5033477;28;20025;-64
2022/08/29 08:23:43;;;;;;;10.63;7.35;;;26.50;64.70;;;;;;5033511;28;20112;-66
2022/08/29 08:26:10;;;;;;;9.68;6.82;;;26.60;64.40;;;;;;5033493;28;20045;-65
2022/08/29 08:28:37;;;;;;;8.95;6.25;;;26.70;64.80;;;;;;5037232;28;20025;-66
2022/08/29 08:31:05;;;;;;;20.02;7.35;;;26.80;65.00;;;;;;5022069;28;20040;-65
2022/08/29 08:33:32;;;;;;;9.30;7.63;;;26.80;64.10;;;;;;5033385;28;20025;-64
2022/08/29 08:35:58;;;;;;;10.32;7.18;;;26.90;64.90;;;;;;5033302;28;20033;-66
2022/08/29 08:38:23;;;;;;;14.10;7.72;;;27.10;65.00;;;;;;5033300;28;20120;-64
2022/08/29 08:41:09;;;;;;;10.25;7.25;;;27.20;62.90;;;;;;5033257;28;20564;-64
2022/08/29 08:44:05;;;;;;;12.23;8.65;;;27.30;62.50;;;;;;5033331;28;20017;-64
2022/08/29 08:46:38;;;;;;;16.98;8.93;;;27.40;63.00;;;;;;5032287;28;20487;-67
2022/08/29 08:49:13;;;;;;;12.40;7.85;;;27.50;61.90;;;;;;5033256;28;20044;-65
2022/08/29 08:51:42;;;;;;;11.30;8.15;;;27.60;62.10;;;;;;5033211;28;20116;-64
2022/08/29 08:54:15;;;;;;;11.20;8.30;;;27.70;63.00;;;;;;5033139;28;20025;-65
2022/08/29 08:56:45;;;;;;;13.20;7.85;;;27.80;61.30;;;;;;5033016;28;20030;-67
2022/08/29 08:59:33;;;;;;;15.38;7.68;;;27.80;61.90;;;;;;5041513;28;20508;-67
2022/08/29 09:02:00;;;;;;;11.35;7.70;;;27.80;61.80;;;;;;5053055;28;20017;-66
2022/08/29 09:05:07;;;;;;;14.07;8.32;;;27.90;62.00;;;;;;5052928;28;20355;-67
2022/08/29 09:07:41;;;;;;;10.65;7.70;;;28.00;60.50;;;;;;4993697;28;20042;-67
2022/08/29 09:10:17;;;;;;;13.43;8.10;;;28.10;61.90;;;;;;5013208;28;20126;-67
2022/08/29 09:13:11;;;;;;;14.35;8.70;;;28.10;59.90;;;;;;5013174;28;20026;-67
2022/08/29 09:15:42;;;;;;;20.23;8.70;;;28.20;58.70;;;;;;5013164;28;20092;-68
2022/08/29 09:18:31;;;;;;;12.60;8.05;;;28.30;58.40;;;;;;5013154;28;20272;-68
2022/08/29 09:20:58;;;;;;;14.48;7.57;;;28.30;59.40;;;;;;5013319;28;20022;-68
2022/08/29 09:23:47;;;;;;;16.33;8.73;;;28.40;58.30;;;;;;5011494;28;20050;-68
2022/08/29 09:26:16;;;;;;;12.85;8.40;;;28.40;57.60;;;;;;5012916;28;20028;-67
2022/08/29 09:28:42;;;;;;;17.20;8.38;;;28.50;58.10;;;;;;5033970;28;20159;-68
2022/08/29 09:31:31;;;;;;;16.45;8.77;;;28.60;59.50;;;;;;5052684;28;20075;-67
2022/08/29 09:34:04;;;;;;;14.88;8.60;;;28.60;57.80;;;;;;5034884;28;20021;-67
2022/08/29 09:36:46;;;;;;;12.95;8.60;;;28.70;57.30;;;;;;5052594;28;20586;-67
2022/08/29 09:39:30;;;;;;;9.90;7.25;;;28.80;56.40;;;;;;5012923;28;20032;-67
2022/08/29 09:42:10;;;;;;;14.65;7.30;;;28.80;56.30;;;;;;5012946;28;20024;-68
2022/08/29 09:44:37;;;;;;;13.27;8.07;;;28.90;57.30;;;;;;5012853;28;20049;-68
2022/08/29 09:47:22;;;;;;;15.93;8.95;;;29.00;56.70;;;;;;5012936;28;20030;-67
2022/08/29 09:50:19;;;;;;;15.23;7.95;;;29.10;56.30;;;;;;5012984;28;20105;-68
2022/08/29 09:52:59;;;;;;;11.65;7.03;;;29.30;58.20;;;;;;5012952;28;20026;-68
2022/08/29 09:55:36;;;;;;;15.50;6.85;;;29.40;57.70;;;;;;5014369;28;20078;-68
2022/08/29 09:58:05;;;;;;;9.85;7.68;;;29.50;57.70;;;;;;5016555;28;20468;-68
2022/08/29 10:00:38;;;;;;;9.80;7.65;;;29.60;56.90;;;;;;5054905;28;20037;-67
2022/08/29 10:03:08;;;;;;;12.38;7.50;;;29.80;55.50;;;;;;5054942;28;20025;-68
2022/08/29 10:05:40;;;;;;;10.32;6.93;;;29.90;54.20;;;;;;5048866;28;20139;-68
2022/08/29 10:08:22;;;;;;;13.20;8.23;;;29.90;54.30;;;;;;5036131;28;20025;-68
2022/08/29 10:10:53;;;;;;;14.90;7.80;;;30.00;53.40;;;;;;5036102;28;20029;-68
2022/08/29 10:13:30;;;;;;;12.65;8.48;;;30.10;54.40;;;;;;5036053;28;20499;-68
2022/08/29 10:16:07;;;;;;;13.18;8.13;;;30.10;52.50;;;;;;5035992;28;20030;-68
2022/08/29 10:18:50;;;;;;;11.15;8.48;;;30.20;51.90;;;;;;5019079;28;20045;-68
2022/08/29 10:21:57;;;;;;;10.65;7.70;;;30.20;51.70;;;;;;4998380;28;20030;-68
2022/08/29 10:25:00;;;;;;;10.70;7.22;;;30.30;52.80;;;;;;5014802;28;20022;-68
2022/08/29 10:27:44;;;;;;;17.23;9.60;;;30.40;53.20;;;;;;5016177;28;20029;-68
2022/08/29 10:30:39;;;;;;;9.90;7.22;;;30.30;50.60;;;;;;5046547;28;20040;-68
2022/08/29 10:33:12;;;;;;;10.35;7.63;;;30.40;50.90;;;;;;5055515;28;20490;-68
2022/08/29 10:35:50;;;;;;;12.75;7.60;;;30.30;49.10;;;;;;5055698;28;20490;-68
2022/08/29 10:38:38;;;;;;;14.15;7.43;;;30.30;50.20;;;;;;5054317;28;20029;-68
2022/08/29 10:41:22;;;;;;;9.68;7.65;;;30.30;50.80;;;;;;5055250;28;20423;-67
2022/08/29 10:44:00;;;;;;;13.70;7.75;;;30.40;51.00;;;;;;5055445;28;20040;-68
2022/08/29 10:46:55;;;;;;;12.80;8.05;;;30.40;51.00;;;;;;5054082;28;20029;-68
2022/08/29 10:49:44;;;;;;;11.30;8.25;;;30.40;49.20;;;;;;5055251;28;20031;-68
2022/08/29 10:52:18;;;;;;;11.75;8.35;;;30.40;50.20;;;;;;5055307;28;20033;-68
2022/08/29 10:54:53;;;;;;;11.43;8.10;;;30.50;49.80;;;;;;5055271;28;20049;-68
2022/08/29 10:57:40;;;;;;;12.30;8.10;;;30.40;48.60;;;;;;5055166;28;20467;-67
2022/08/29 11:00:09;;;;;;;13.07;7.53;;;30.40;48.20;;;;;;5021701;28;20033;-68
2022/08/29 11:03:04;;;;;;;11.18;7.50;;;30.40;48.90;;;;;;5035063;28;20094;-67
2022/08/29 11:05:38;;;;;;;10.73;6.82;;;30.40;49.30;;;;;;5034885;28;20542;-67
2022/08/29 11:08:18;;;;;;;8.88;7.10;;;30.50;49.90;;;;;;5033754;28;20025;-68
2022/08/29 11:10:48;;;;;;;8.40;5.72;;;30.40;48.50;;;;;;5035866;28;20070;-68
2022/08/29 11:13:17;;;;;;;8.40;6.35;;;30.50;49.40;;;;;;5034913;28;20022;-68
2022/08/29 11:16:04;;;;;;;11.95;7.57;;;30.50;49.20;;;;;;5034881;28;20475;-67
2022/08/29 11:18:46;;;;;;;13.25;7.88;;;30.40;47.60;;;;;;5034777;28;20048;-68
2022/08/29 11:21:23;;;;;;;15.07;7.75;;;30.30;46.60;;;;;;5016888;28;20048;-68
2022/08/29 11:23:49;;;;;;;9.32;6.53;;;30.20;47.10;;;;;;5033370;28;20041;-68
2022/08/29 11:26:19;;;;;;;8.57;6.10;;;30.10;48.90;;;;;;5034501;28;20026;-68
2022/08/29 11:28:51;;;;;;;7.10;6.22;;;30.00;48.00;;;;;;5020238;28;20017;-68
2022/08/29 11:31:40;;;;;;;8.80;6.10;;;29.90;47.60;;;;;;5053156;28;20039;-67
2022/08/29 11:34:19;;;;;;;7.80;6.47;;;29.90;48.70;;;;;;5054404;28;20029;-67
2022/08/29 11:36:50;;;;;;;8.70;6.07;;;29.80;47.40;;;;;;5054458;28;20022;-67
2022/08/29 11:39:40;;;;;;;7.50;6.15;;;29.70;48.00;;;;;;5054297;28;20386;-67
2022/08/29 11:42:09;;;;;;;8.18;6.05;;;29.70;47.90;;;;;;5054316;28;20017;-67
2022/08/29 11:44:51;;;;;;;9.55;6.25;;;29.70;48.30;;;;;;5054197;28;20021;-67
2022/08/29 11:47:44;;;;;;;7.65;6.25;;;29.60;47.90;;;;;;5054182;28;20021;-67
2022/08/29 11:50:15;;;;;;;8.68;6.57;;;29.60;48.60;;;;;;5054090;28;20064;-68
2022/08/29 11:53:12;;;;;;;8.43;6.00;;;29.60;47.80;;;;;;5054092;28;20025;-66
2022/08/29 11:55:41;;;;;;;9.10;6.20;;;29.60;47.40;;;;;;5054021;28;20114;-67
2022/08/29 11:58:13;;;;;;;8.05;5.55;;;29.60;47.80;;;;;;5053994;28;20102;-67
2022/08/29 12:00:45;;;;;;;7.85;5.55;;;29.50;47.70;;;;;;5034507;28;20022;-67
2022/08/29 12:03:32;;;;;;;8.43;5.85;;;29.50;48.00;;;;;;5033804;28;20364;-68
2022/08/29 12:06:01;;;;;;;9.35;7.25;;;29.40;46.70;;;;;;5016180;28;20097;-67
2022/08/29 12:08:45;;;;;;;7.38;6.25;;;29.40;46.10;;;;;;5033930;28;20360;-67
2022/08/29 12:11:12;;;;;;;10.20;6.72;;;29.30;47.00;;;;;;5033856;28;20033;-68
2022/08/29 12:13:49;;;;;;;11.25;6.95;;;29.30;46.50;;;;;;5033821;28;20383;-67
2022/08/29 12:16:18;;;;;;;11.40;7.80;;;29.30;46.30;;;;;;5033707;28;20100;-67
2022/08/29 12:18:49;;;;;;;9.00;6.97;;;29.30;46.40;;;;;;5016951;28;20030;-69
2022/08/29 12:21:53;;;;;;;10.38;5.85;;;29.30;46.30;;;;;;5013689;28;20470;-68
2022/08/29 12:24:54;;;;;;;8.85;6.97;;;29.30;47.30;;;;;;4972704;28;20078;-69
2022/08/29 12:27:23;;;;;;;14.68;6.90;;;29.40;46.90;;;;;;4915243;29;20417;-69
2022/08/29 12:29:50;;;;;;;13.65;6.68;;;29.50;45.90;;;;;;4926494;29;20038;-69
2022/08/29 12:32:39;;;;;;;16.58;8.35;;;29.50;45.60;;;;;;4933837;29;20036;-66
2022/08/29 12:35:25;;;;;;;14.20;6.10;;;29.60;45.40;;;;;;4933944;29;20169;-67
2022/08/29 12:38:18;;;;;;;7.95;5.72;;;29.60;44.60;;;;;;4934031;29;20035;-67
2022/08/29 12:40:59;;;;;;;8.30;6.57;;;29.70;44.90;;;;;;4933979;29;20071;-67
2022/08/29 12:43:34;;;;;;;8.45;6.35;;;29.80;44.60;;;;;;4934104;29;20028;-67
2022/08/29 12:46:08;;;;;;;13.80;6.78;;;30.00;45.20;;;;;;4934062;29;20028;-67
2022/08/29 12:48:41;;;;;;;13.48;7.22;;;30.10;44.20;;;;;;4933903;29;20032;-66
2022/08/29 12:51:08;;;;;;;6.33;5.50;;;30.30;43.50;;;;;;4933862;29;20114;-67
2022/08/29 12:53:34;;;;;;;11.90;5.97;;;30.50;44.50;;;;;;4933775;29;20275;-67
2022/08/29 12:56:19;;;;;;;6.82;5.28;;;30.60;43.50;;;;;;4967839;28;20457;-67
2022/08/29 12:58:50;;;;;;;7.25;5.63;;;30.70;44.30;;;;;;4971756;28;20121;-67
2022/08/29 13:01:23;;;;;;;10.50;6.47;;;30.80;43.00;;;;;;5001605;28;20033;-67
2022/08/29 13:04:01;;;;;;;;;;;30.80;42.30;;;;;;5033449;28;20028;-67